sensor_id;sensor_type;location;lat;lon;timestamp;P1;durP1;ratioP1;P2;durP2;ratioP2
12846;SDS011;6492;48.128;8.320;2023-04-25T00:02:01;5.80;;;3.20;;
12846;SDS011;6492;48.128;8.320;2023-04-25T00:06:03;3.13;;;2.80;;
12846;SDS011;6492;48.128;8.320;2023-04-25T00:10:05;4.47;;;3.30;;
12846;SDS011;6492;48.128;8.320;2023-04-25T00:14:10;4.17;;;3.17;;
12846;SDS011;6492;48.128;8.320;2023-04-25T00:18:11;4.73;;;2.80;;
12846;SDS011;6492;48.128;8.320;2023-04-25T00:22:13;4.73;;;3.23;;
12846;SDS011;6492;48.128;8.320;2023-04-25T00:26:15;7.40;;;3.10;;
12846;SDS011;6492;48.128;8.320;2023-04-25T00:30:19;4.77;;;2.87;;
12846;SDS011;6492;48.128;8.320;2023-04-25T00:34:20;5.13;;;2.90;;
12846;SDS011;6492;48.128;8.320;2023-04-25T00:38:22;4.50;;;3.40;;
12846;SDS011;6492;48.128;8.320;2023-04-25T00:42:24;4.80;;;3.30;;
12846;SDS011;6492;48.128;8.320;2023-04-25T00:46:27;6.40;;;3.10;;
12846;SDS011;6492;48.128;8.320;2023-04-25T00:50:29;8.13;;;3.53;;
12846;SDS011;6492;48.128;8.320;2023-04-25T00:54:33;4.70;;;3.70;;
12846;SDS011;6492;48.128;8.320;2023-04-25T00:58:35;3.93;;;3.33;;
12846;SDS011;6492;48.128;8.320;2023-04-25T01:02:40;5.60;;;3.77;;
12846;SDS011;6492;48.128;8.320;2023-04-25T01:06:42;6.77;;;3.60;;
12846;SDS011;6492;48.128;8.320;2023-04-25T01:10:43;4.17;;;3.70;;
12846;SDS011;6492;48.128;8.320;2023-04-25T01:14:45;6.40;;;4.33;;
12846;SDS011;6492;48.128;8.320;2023-04-25T01:18:48;5.57;;;3.87;;
12846;SDS011;6492;48.128;8.320;2023-04-25T01:22:52;6.80;;;3.60;;
12846;SDS011;6492;48.128;8.320;2023-04-25T01:26:56;6.33;;;3.67;;
12846;SDS011;6492;48.128;8.320;2023-04-25T01:30:58;3.83;;;3.10;;
12846;SDS011;6492;48.128;8.320;2023-04-25T01:35:01;5.00;;;3.23;;
12846;SDS011;6492;48.128;8.320;2023-04-25T01:39:04;4.70;;;3.53;;
12846;SDS011;6492;48.128;8.320;2023-04-25T01:43:06;5.00;;;3.70;;
12846;SDS011;6492;48.128;8.320;2023-04-25T01:47:12;6.03;;;3.47;;
12846;SDS011;6492;48.128;8.320;2023-04-25T01:51:13;6.17;;;3.43;;
12846;SDS011;6492;48.128;8.320;2023-04-25T01:55:17;3.67;;;3.30;;
12846;SDS011;6492;48.128;8.320;2023-04-25T01:59:19;4.13;;;3.73;;
12846;SDS011;6492;48.128;8.320;2023-04-25T02:03:22;5.07;;;3.20;;
12846;SDS011;6492;48.128;8.320;2023-04-25T02:07:25;5.00;;;3.73;;
12846;SDS011;6492;48.128;8.320;2023-04-25T02:11:29;5.07;;;3.90;;
12846;SDS011;6492;48.128;8.320;2023-04-25T02:15:31;4.70;;;3.50;;
12846;SDS011;6492;48.128;8.320;2023-04-25T02:19:33;6.43;;;3.33;;
12846;SDS011;6492;48.128;8.320;2023-04-25T02:23:35;4.43;;;3.13;;
12846;SDS011;6492;48.128;8.320;2023-04-25T02:27:38;4.23;;;3.37;;
12846;SDS011;6492;48.128;8.320;2023-04-25T02:31:40;4.53;;;3.37;;
12846;SDS011;6492;48.128;8.320;2023-04-25T02:35:41;4.03;;;3.63;;
12846;SDS011;6492;48.128;8.320;2023-04-25T02:39:43;6.03;;;3.10;;
12846;SDS011;6492;48.128;8.320;2023-04-25T02:43:46;6.60;;;3.80;;
12846;SDS011;6492;48.128;8.320;2023-04-25T02:47:48;5.33;;;2.80;;
12846;SDS011;6492;48.128;8.320;2023-04-25T02:56:26;5.07;;;3.60;;
12846;SDS011;6492;48.128;8.320;2023-04-25T03:00:29;4.40;;;3.40;;
12846;SDS011;6492;48.128;8.320;2023-04-25T03:04:31;4.90;;;3.60;;
12846;SDS011;6492;48.128;8.320;2023-04-25T03:08:33;6.33;;;4.10;;
12846;SDS011;6492;48.128;8.320;2023-04-25T03:12:35;4.10;;;3.50;;
12846;SDS011;6492;48.128;8.320;2023-04-25T03:16:38;6.67;;;4.40;;
12846;SDS011;6492;48.128;8.320;2023-04-25T03:20:40;4.93;;;3.47;;
12846;SDS011;6492;48.128;8.320;2023-04-25T03:24:42;4.80;;;3.40;;
12846;SDS011;6492;48.128;8.320;2023-04-25T03:28:44;5.43;;;3.93;;
12846;SDS011;6492;48.128;8.320;2023-04-25T03:32:48;4.00;;;3.60;;
12846;SDS011;6492;48.128;8.320;2023-04-25T03:36:49;4.93;;;4.13;;
12846;SDS011;6492;48.128;8.320;2023-04-25T03:40:51;4.10;;;3.27;;
12846;SDS011;6492;48.128;8.320;2023-04-25T03:49:08;6.53;;;4.50;;
12846;SDS011;6492;48.128;8.320;2023-04-25T03:53:10;6.83;;;4.37;;
12846;SDS011;6492;48.128;8.320;2023-04-25T03:57:12;4.77;;;3.90;;
12846;SDS011;6492;48.128;8.320;2023-04-25T04:01:14;5.43;;;3.90;;
12846;SDS011;6492;48.128;8.320;2023-04-25T04:05:17;5.60;;;4.63;;
12846;SDS011;6492;48.128;8.320;2023-04-25T04:09:19;4.47;;;4.00;;
12846;SDS011;6492;48.128;8.320;2023-04-25T04:13:21;6.00;;;4.50;;
12846;SDS011;6492;48.128;8.320;2023-04-25T04:17:22;6.43;;;4.60;;
12846;SDS011;6492;48.128;8.320;2023-04-25T04:21:36;6.13;;;4.30;;
12846;SDS011;6492;48.128;8.320;2023-04-25T04:25:38;7.33;;;4.80;;
12846;SDS011;6492;48.128;8.320;2023-04-25T04:29:40;5.53;;;4.57;;
12846;SDS011;6492;48.128;8.320;2023-04-25T04:33:52;6.47;;;4.80;;
12846;SDS011;6492;48.128;8.320;2023-04-25T04:37:55;6.63;;;4.80;;
12846;SDS011;6492;48.128;8.320;2023-04-25T04:41:58;8.17;;;5.10;;
12846;SDS011;6492;48.128;8.320;2023-04-25T04:46:01;7.07;;;5.13;;
12846;SDS011;6492;48.128;8.320;2023-04-25T04:50:20;9.20;;;5.40;;
12846;SDS011;6492;48.128;8.320;2023-04-25T04:58:44;8.70;;;6.20;;
12846;SDS011;6492;48.128;8.320;2023-04-25T05:02:48;8.63;;;5.67;;
12846;SDS011;6492;48.128;8.320;2023-04-25T05:06:50;6.93;;;5.77;;
12846;SDS011;6492;48.128;8.320;2023-04-25T05:10:54;9.17;;;6.50;;
12846;SDS011;6492;48.128;8.320;2023-04-25T05:14:56;6.93;;;5.83;;
12846;SDS011;6492;48.128;8.320;2023-04-25T05:18:57;6.57;;;5.17;;
12846;SDS011;6492;48.128;8.320;2023-04-25T05:22:59;7.67;;;6.37;;
12846;SDS011;6492;48.128;8.320;2023-04-25T05:27:03;7.53;;;6.37;;
12846;SDS011;6492;48.128;8.320;2023-04-25T05:31:05;6.60;;;5.70;;
12846;SDS011;6492;48.128;8.320;2023-04-25T05:35:08;6.57;;;5.87;;
12846;SDS011;6492;48.128;8.320;2023-04-25T05:39:10;9.70;;;6.70;;
12846;SDS011;6492;48.128;8.320;2023-04-25T05:43:13;7.80;;;6.50;;
12846;SDS011;6492;48.128;8.320;2023-04-25T05:47:15;7.90;;;5.73;;
12846;SDS011;6492;48.128;8.320;2023-04-25T05:51:35;10.23;;;5.27;;
12846;SDS011;6492;48.128;8.320;2023-04-25T05:55:43;7.23;;;5.00;;
12846;SDS011;6492;48.128;8.320;2023-04-25T05:59:47;10.73;;;8.27;;
12846;SDS011;6492;48.128;8.320;2023-04-25T06:08:12;8.33;;;5.90;;
12846;SDS011;6492;48.128;8.320;2023-04-25T06:12:13;5.43;;;4.90;;
12846;SDS011;6492;48.128;8.320;2023-04-25T06:16:17;8.27;;;5.13;;
12846;SDS011;6492;48.128;8.320;2023-04-25T06:20:19;7.07;;;5.00;;
12846;SDS011;6492;48.128;8.320;2023-04-25T06:24:23;7.83;;;5.33;;
12846;SDS011;6492;48.128;8.320;2023-04-25T06:28:24;9.33;;;5.97;;
12846;SDS011;6492;48.128;8.320;2023-04-25T06:32:28;6.80;;;5.03;;
12846;SDS011;6492;48.128;8.320;2023-04-25T06:36:30;6.53;;;4.50;;
12846;SDS011;6492;48.128;8.320;2023-04-25T06:40:31;9.23;;;4.50;;
12846;SDS011;6492;48.128;8.320;2023-04-25T06:44:33;5.20;;;3.67;;
12846;SDS011;6492;48.128;8.320;2023-04-25T06:48:37;7.50;;;4.20;;
12846;SDS011;6492;48.128;8.320;2023-04-25T06:52:41;6.17;;;3.70;;
12846;SDS011;6492;48.128;8.320;2023-04-25T06:56:42;4.73;;;2.97;;
12846;SDS011;6492;48.128;8.320;2023-04-25T07:00:44;2.93;;;2.53;;
12846;SDS011;6492;48.128;8.320;2023-04-25T07:04:47;2.57;;;2.10;;
12846;SDS011;6492;48.128;8.320;2023-04-25T07:08:49;1.70;;;1.60;;
12846;SDS011;6492;48.128;8.320;2023-04-25T07:12:54;1.27;;;1.17;;
12846;SDS011;6492;48.128;8.320;2023-04-25T07:16:56;1.97;;;1.50;;
12846;SDS011;6492;48.128;8.320;2023-04-25T07:20:59;1.53;;;1.40;;
12846;SDS011;6492;48.128;8.320;2023-04-25T07:25:01;1.20;;;1.10;;
12846;SDS011;6492;48.128;8.320;2023-04-25T07:29:04;1.37;;;1.17;;
12846;SDS011;6492;48.128;8.320;2023-04-25T07:33:05;0.90;;;0.80;;
12846;SDS011;6492;48.128;8.320;2023-04-25T07:37:09;0.90;;;0.90;;
12846;SDS011;6492;48.128;8.320;2023-04-25T07:41:11;0.80;;;0.80;;
12846;SDS011;6492;48.128;8.320;2023-04-25T07:45:12;0.80;;;0.80;;
12846;SDS011;6492;48.128;8.320;2023-04-25T07:49:15;1.33;;;0.83;;
12846;SDS011;6492;48.128;8.320;2023-04-25T07:53:18;0.43;;;0.43;;
12846;SDS011;6492;48.128;8.320;2023-04-25T07:57:20;0.50;;;0.50;;
12846;SDS011;6492;48.128;8.320;2023-04-25T08:01:22;0.47;;;0.47;;
12846;SDS011;6492;48.128;8.320;2023-04-25T08:05:24;0.60;;;0.60;;
12846;SDS011;6492;48.128;8.320;2023-04-25T08:09:27;1.10;;;1.00;;
12846;SDS011;6492;48.128;8.320;2023-04-25T08:13:43;1.03;;;0.93;;
12846;SDS011;6492;48.128;8.320;2023-04-25T08:17:45;0.60;;;0.60;;
12846;SDS011;6492;48.128;8.320;2023-04-25T08:21:47;0.97;;;0.80;;
12846;SDS011;6492;48.128;8.320;2023-04-25T08:25:50;0.70;;;0.70;;
12846;SDS011;6492;48.128;8.320;2023-04-25T08:29:52;0.40;;;0.40;;
12846;SDS011;6492;48.128;8.320;2023-04-25T08:33:54;0.77;;;0.77;;
12846;SDS011;6492;48.128;8.320;2023-04-25T08:37:55;0.50;;;0.50;;
12846;SDS011;6492;48.128;8.320;2023-04-25T08:41:58;0.50;;;0.50;;
12846;SDS011;6492;48.128;8.320;2023-04-25T08:46:02;0.57;;;0.57;;
12846;SDS011;6492;48.128;8.320;2023-04-25T08:50:04;0.30;;;0.30;;
12846;SDS011;6492;48.128;8.320;2023-04-25T08:54:08;0.10;;;0.10;;
12846;SDS011;6492;48.128;8.320;2023-04-25T08:58:12;0.30;;;0.30;;
12846;SDS011;6492;48.128;8.320;2023-04-25T09:02:14;0.17;;;0.17;;
12846;SDS011;6492;48.128;8.320;2023-04-25T09:06:17;0.30;;;0.30;;
12846;SDS011;6492;48.128;8.320;2023-04-25T09:10:20;0.30;;;0.30;;
12846;SDS011;6492;48.128;8.320;2023-04-25T09:14:23;0.30;;;0.30;;
12846;SDS011;6492;48.128;8.320;2023-04-25T09:18:28;1.60;;;0.50;;
12846;SDS011;6492;48.128;8.320;2023-04-25T09:22:31;0.50;;;0.50;;
12846;SDS011;6492;48.128;8.320;2023-04-25T09:26:33;0.70;;;0.60;;
12846;SDS011;6492;48.128;8.320;2023-04-25T09:30:36;0.63;;;0.60;;
12846;SDS011;6492;48.128;8.320;2023-04-25T09:34:39;1.57;;;1.40;;
12846;SDS011;6492;48.128;8.320;2023-04-25T09:38:42;0.90;;;0.90;;
12846;SDS011;6492;48.128;8.320;2023-04-25T09:42:45;1.10;;;1.00;;
12846;SDS011;6492;48.128;8.320;2023-04-25T09:47:01;0.80;;;0.80;;
12846;SDS011;6492;48.128;8.320;2023-04-25T09:51:04;1.43;;;0.70;;
12846;SDS011;6492;48.128;8.320;2023-04-25T09:55:07;2.20;;;2.00;;
12846;SDS011;6492;48.128;8.320;2023-04-25T09:59:09;0.40;;;0.40;;
12846;SDS011;6492;48.128;8.320;2023-04-25T10:03:13;4.30;;;2.40;;
12846;SDS011;6492;48.128;8.320;2023-04-25T10:07:18;1.00;;;1.00;;
12846;SDS011;6492;48.128;8.320;2023-04-25T10:11:21;0.90;;;0.90;;
12846;SDS011;6492;48.128;8.320;2023-04-25T10:15:25;0.63;;;0.60;;
12846;SDS011;6492;48.128;8.320;2023-04-25T10:19:29;0.20;;;0.20;;
12846;SDS011;6492;48.128;8.320;2023-04-25T10:23:32;0.30;;;0.30;;
12846;SDS011;6492;48.128;8.320;2023-04-25T10:27:35;0.20;;;0.20;;
12846;SDS011;6492;48.128;8.320;2023-04-25T10:31:44;0.30;;;0.30;;
12846;SDS011;6492;48.128;8.320;2023-04-25T10:35:48;0.70;;;0.70;;
12846;SDS011;6492;48.128;8.320;2023-04-25T10:39:50;0.20;;;0.20;;
12846;SDS011;6492;48.128;8.320;2023-04-25T10:43:58;0.40;;;0.40;;
12846;SDS011;6492;48.128;8.320;2023-04-25T10:48:24;0.40;;;0.40;;
12846;SDS011;6492;48.128;8.320;2023-04-25T10:52:28;0.63;;;0.63;;
12846;SDS011;6492;48.128;8.320;2023-04-25T10:56:31;0.60;;;0.60;;
12846;SDS011;6492;48.128;8.320;2023-04-25T11:00:34;0.70;;;0.70;;
12846;SDS011;6492;48.128;8.320;2023-04-25T11:04:40;1.13;;;1.03;;
12846;SDS011;6492;48.128;8.320;2023-04-25T11:08:47;1.50;;;1.40;;
12846;SDS011;6492;48.128;8.320;2023-04-25T11:12:50;2.13;;;1.73;;
12846;SDS011;6492;48.128;8.320;2023-04-25T11:16:52;1.63;;;1.53;;
12846;SDS011;6492;48.128;8.320;2023-04-25T11:20:55;2.30;;;1.80;;
12846;SDS011;6492;48.128;8.320;2023-04-25T11:25:01;2.20;;;1.80;;
12846;SDS011;6492;48.128;8.320;2023-04-25T11:29:06;2.10;;;1.90;;
12846;SDS011;6492;48.128;8.320;2023-04-25T11:33:09;1.90;;;1.80;;
12846;SDS011;6492;48.128;8.320;2023-04-25T11:37:11;2.70;;;1.83;;
12846;SDS011;6492;48.128;8.320;2023-04-25T11:41:14;3.17;;;1.80;;
12846;SDS011;6492;48.128;8.320;2023-04-25T11:45:16;2.00;;;1.80;;
12846;SDS011;6492;48.128;8.320;2023-04-25T11:49:18;2.00;;;1.80;;
12846;SDS011;6492;48.128;8.320;2023-04-25T11:53:22;1.70;;;1.60;;
12846;SDS011;6492;48.128;8.320;2023-04-25T11:57:26;2.10;;;1.90;;
12846;SDS011;6492;48.128;8.320;2023-04-25T12:01:28;2.90;;;1.80;;
12846;SDS011;6492;48.128;8.320;2023-04-25T12:05:31;2.77;;;1.80;;
12846;SDS011;6492;48.128;8.320;2023-04-25T12:09:33;2.00;;;1.80;;
12846;SDS011;6492;48.128;8.320;2023-04-25T12:13:37;2.53;;;1.70;;
12846;SDS011;6492;48.128;8.320;2023-04-25T12:17:38;2.43;;;1.67;;
12846;SDS011;6492;48.128;8.320;2023-04-25T12:26:20;2.10;;;1.90;;
12846;SDS011;6492;48.128;8.320;2023-04-25T12:30:24;3.60;;;1.63;;
12846;SDS011;6492;48.128;8.320;2023-04-25T12:34:25;3.00;;;1.73;;
12846;SDS011;6492;48.128;8.320;2023-04-25T12:38:27;2.20;;;2.00;;
12846;SDS011;6492;48.128;8.320;2023-04-25T12:42:31;2.20;;;2.00;;
12846;SDS011;6492;48.128;8.320;2023-04-25T12:46:34;2.60;;;2.37;;
12846;SDS011;6492;48.128;8.320;2023-04-25T12:50:36;2.50;;;2.20;;
12846;SDS011;6492;48.128;8.320;2023-04-25T12:54:38;6.07;;;3.30;;
12846;SDS011;6492;48.128;8.320;2023-04-25T12:58:40;1.90;;;1.80;;
12846;SDS011;6492;48.128;8.320;2023-04-25T13:02:45;2.63;;;1.97;;
12846;SDS011;6492;48.128;8.320;2023-04-25T13:06:47;1.80;;;1.30;;
12846;SDS011;6492;48.128;8.320;2023-04-25T13:10:49;1.40;;;1.30;;
12846;SDS011;6492;48.128;8.320;2023-04-25T13:14:50;1.60;;;1.50;;
12846;SDS011;6492;48.128;8.320;2023-04-25T13:18:53;2.07;;;1.70;;
12846;SDS011;6492;48.128;8.320;2023-04-25T13:22:56;1.97;;;1.67;;
12846;SDS011;6492;48.128;8.320;2023-04-25T13:26:58;2.33;;;2.10;;
12846;SDS011;6492;48.128;8.320;2023-04-25T13:31:00;2.23;;;1.80;;
12846;SDS011;6492;48.128;8.320;2023-04-25T13:35:03;2.03;;;1.50;;
12846;SDS011;6492;48.128;8.320;2023-04-25T13:39:06;2.67;;;1.90;;
12846;SDS011;6492;48.128;8.320;2023-04-25T13:43:07;3.47;;;1.73;;
12846;SDS011;6492;48.128;8.320;2023-04-25T13:47:09;2.40;;;1.20;;
12846;SDS011;6492;48.128;8.320;2023-04-25T13:55:40;1.87;;;1.43;;
12846;SDS011;6492;48.128;8.320;2023-04-25T13:59:42;1.70;;;1.60;;
12846;SDS011;6492;48.128;8.320;2023-04-25T14:03:44;2.40;;;2.17;;
12846;SDS011;6492;48.128;8.320;2023-04-25T14:07:47;1.40;;;1.30;;
12846;SDS011;6492;48.128;8.320;2023-04-25T14:11:50;1.93;;;1.30;;
12846;SDS011;6492;48.128;8.320;2023-04-25T14:15:52;1.53;;;1.30;;
12846;SDS011;6492;48.128;8.320;2023-04-25T14:19:54;1.60;;;1.40;;
12846;SDS011;6492;48.128;8.320;2023-04-25T14:23:57;1.60;;;1.50;;
12846;SDS011;6492;48.128;8.320;2023-04-25T14:27:59;1.30;;;1.20;;
12846;SDS011;6492;48.128;8.320;2023-04-25T14:32:02;2.00;;;1.10;;
12846;SDS011;6492;48.128;8.320;2023-04-25T14:41:03;0.90;;;0.90;;
12846;SDS011;6492;48.128;8.320;2023-04-25T14:45:21;1.33;;;1.13;;
12846;SDS011;6492;48.128;8.320;2023-04-25T14:49:23;1.93;;;0.90;;
12846;SDS011;6492;48.128;8.320;2023-04-25T14:58:09;3.80;;;1.73;;
12846;SDS011;6492;48.128;8.320;2023-04-25T15:02:11;1.70;;;1.60;;
12846;SDS011;6492;48.128;8.320;2023-04-25T15:06:13;2.37;;;2.13;;
12846;SDS011;6492;48.128;8.320;2023-04-25T15:14:53;2.67;;;1.70;;
12846;SDS011;6492;48.128;8.320;2023-04-25T15:23:38;1.23;;;1.13;;
12846;SDS011;6492;48.128;8.320;2023-04-25T15:32:30;1.50;;;1.40;;
12846;SDS011;6492;48.128;8.320;2023-04-25T15:36:36;1.37;;;0.97;;
12846;SDS011;6492;48.128;8.320;2023-04-25T15:45:14;2.27;;;1.70;;
12846;SDS011;6492;48.128;8.320;2023-04-25T15:49:19;1.87;;;1.63;;
12846;SDS011;6492;48.128;8.320;2023-04-25T15:53:21;2.97;;;2.20;;
12846;SDS011;6492;48.128;8.320;2023-04-25T15:57:23;1.80;;;1.60;;
12846;SDS011;6492;48.128;8.320;2023-04-25T16:01:25;1.67;;;1.47;;
12846;SDS011;6492;48.128;8.320;2023-04-25T16:05:31;2.20;;;1.50;;
12846;SDS011;6492;48.128;8.320;2023-04-25T16:14:02;2.37;;;2.13;;
12846;SDS011;6492;48.128;8.320;2023-04-25T16:18:09;2.20;;;2.00;;
12846;SDS011;6492;48.128;8.320;2023-04-25T16:22:19;2.70;;;2.40;;
12846;SDS011;6492;48.128;8.320;2023-04-25T16:26:21;3.10;;;2.80;;
12846;SDS011;6492;48.128;8.320;2023-04-25T16:30:23;4.43;;;3.17;;
12846;SDS011;6492;48.128;8.320;2023-04-25T16:34:25;3.50;;;3.00;;
12846;SDS011;6492;48.128;8.320;2023-04-25T16:38:28;3.73;;;3.03;;
12846;SDS011;6492;48.128;8.320;2023-04-25T16:42:30;5.40;;;4.00;;
12846;SDS011;6492;48.128;8.320;2023-04-25T16:46:32;3.33;;;2.97;;
12846;SDS011;6492;48.128;8.320;2023-04-25T16:50:33;3.73;;;3.13;;
12846;SDS011;6492;48.128;8.320;2023-04-25T16:54:37;3.27;;;2.43;;
12846;SDS011;6492;48.128;8.320;2023-04-25T16:58:38;3.77;;;2.60;;
12846;SDS011;6492;48.128;8.320;2023-04-25T17:02:40;2.80;;;2.40;;
12846;SDS011;6492;48.128;8.320;2023-04-25T17:06:52;3.07;;;2.37;;
12846;SDS011;6492;48.128;8.320;2023-04-25T17:10:58;3.37;;;2.50;;
12846;SDS011;6492;48.128;8.320;2023-04-25T17:15:06;3.23;;;2.60;;
12846;SDS011;6492;48.128;8.320;2023-04-25T17:19:10;3.10;;;2.70;;
12846;SDS011;6492;48.128;8.320;2023-04-25T17:23:11;3.10;;;2.50;;
12846;SDS011;6492;48.128;8.320;2023-04-25T17:27:22;2.87;;;2.57;;
12846;SDS011;6492;48.128;8.320;2023-04-25T17:31:32;3.27;;;2.90;;
12846;SDS011;6492;48.128;8.320;2023-04-25T17:35:44;3.50;;;2.40;;
12846;SDS011;6492;48.128;8.320;2023-04-25T17:39:46;2.60;;;2.40;;
12846;SDS011;6492;48.128;8.320;2023-04-25T17:43:50;3.00;;;2.70;;
12846;SDS011;6492;48.128;8.320;2023-04-25T17:47:52;3.30;;;3.00;;
12846;SDS011;6492;48.128;8.320;2023-04-25T17:51:59;2.73;;;2.53;;
12846;SDS011;6492;48.128;8.320;2023-04-25T17:56:01;2.47;;;2.27;;
12846;SDS011;6492;48.128;8.320;2023-04-25T18:00:07;3.27;;;2.77;;
12846;SDS011;6492;48.128;8.320;2023-04-25T18:04:11;3.03;;;2.30;;
12846;SDS011;6492;48.128;8.320;2023-04-25T18:12:36;4.13;;;3.00;;
12846;SDS011;6492;48.128;8.320;2023-04-25T18:16:40;2.90;;;2.60;;
12846;SDS011;6492;48.128;8.320;2023-04-25T18:20:42;3.07;;;2.30;;
12846;SDS011;6492;48.128;8.320;2023-04-25T18:24:44;3.10;;;2.77;;
12846;SDS011;6492;48.128;8.320;2023-04-25T18:28:45;3.53;;;3.23;;
12846;SDS011;6492;48.128;8.320;2023-04-25T18:33:05;4.10;;;3.60;;
12846;SDS011;6492;48.128;8.320;2023-04-25T18:37:09;3.10;;;2.80;;
12846;SDS011;6492;48.128;8.320;2023-04-25T18:41:12;2.87;;;2.57;;
12846;SDS011;6492;48.128;8.320;2023-04-25T18:45:14;3.23;;;2.93;;
12846;SDS011;6492;48.128;8.320;2023-04-25T18:49:20;3.33;;;3.03;;
12846;SDS011;6492;48.128;8.320;2023-04-25T18:53:22;3.20;;;2.90;;
12846;SDS011;6492;48.128;8.320;2023-04-25T19:01:52;4.27;;;2.90;;
12846;SDS011;6492;48.128;8.320;2023-04-25T19:05:55;2.40;;;2.20;;
12846;SDS011;6492;48.128;8.320;2023-04-25T19:09:57;3.07;;;2.60;;
12846;SDS011;6492;48.128;8.320;2023-04-25T19:14:05;3.87;;;2.70;;
12846;SDS011;6492;48.128;8.320;2023-04-25T19:18:07;2.30;;;2.10;;
12846;SDS011;6492;48.128;8.320;2023-04-25T19:22:27;3.23;;;2.67;;
12846;SDS011;6492;48.128;8.320;2023-04-25T19:26:34;2.87;;;2.53;;
12846;SDS011;6492;48.128;8.320;2023-04-25T19:30:36;3.20;;;2.57;;
12846;SDS011;6492;48.128;8.320;2023-04-25T19:34:39;3.40;;;2.70;;
12846;SDS011;6492;48.128;8.320;2023-04-25T19:38:43;2.70;;;2.33;;
12846;SDS011;6492;48.128;8.320;2023-04-25T19:42:46;3.90;;;3.53;;
12846;SDS011;6492;48.128;8.320;2023-04-25T19:47:04;4.30;;;3.60;;
12846;SDS011;6492;48.128;8.320;2023-04-25T19:51:07;11.50;;;8.00;;
12846;SDS011;6492;48.128;8.320;2023-04-25T19:55:10;5.30;;;3.87;;
12846;SDS011;6492;48.128;8.320;2023-04-25T20:03:48;2.90;;;2.30;;
12846;SDS011;6492;48.128;8.320;2023-04-25T20:07:51;2.90;;;2.40;;
12846;SDS011;6492;48.128;8.320;2023-04-25T20:11:54;4.03;;;3.67;;
12846;SDS011;6492;48.128;8.320;2023-04-25T20:20:01;4.60;;;3.57;;
12846;SDS011;6492;48.128;8.320;2023-04-25T20:24:21;2.23;;;2.03;;
12846;SDS011;6492;48.128;8.320;2023-04-25T20:28:24;4.20;;;2.60;;
12846;SDS011;6492;48.128;8.320;2023-04-25T20:32:26;3.80;;;3.10;;
12846;SDS011;6492;48.128;8.320;2023-04-25T20:36:37;3.60;;;3.20;;
12846;SDS011;6492;48.128;8.320;2023-04-25T20:40:39;4.17;;;3.30;;
12846;SDS011;6492;48.128;8.320;2023-04-25T20:44:42;4.10;;;3.30;;
12846;SDS011;6492;48.128;8.320;2023-04-25T20:48:44;3.03;;;2.73;;
12846;SDS011;6492;48.128;8.320;2023-04-25T20:52:45;3.23;;;2.93;;
12846;SDS011;6492;48.128;8.320;2023-04-25T20:56:47;3.40;;;2.63;;
12846;SDS011;6492;48.128;8.320;2023-04-25T21:00:51;3.10;;;2.73;;
12846;SDS011;6492;48.128;8.320;2023-04-25T21:04:53;3.10;;;2.70;;
12846;SDS011;6492;48.128;8.320;2023-04-25T21:08:55;2.40;;;2.20;;
12846;SDS011;6492;48.128;8.320;2023-04-25T21:12:57;2.10;;;1.90;;
12846;SDS011;6492;48.128;8.320;2023-04-25T21:17:00;2.87;;;2.57;;
12846;SDS011;6492;48.128;8.320;2023-04-25T21:21:03;2.63;;;2.43;;
12846;SDS011;6492;48.128;8.320;2023-04-25T21:25:05;2.60;;;2.30;;
12846;SDS011;6492;48.128;8.320;2023-04-25T21:29:07;3.20;;;2.70;;
12846;SDS011;6492;48.128;8.320;2023-04-25T21:33:10;3.00;;;2.70;;
12846;SDS011;6492;48.128;8.320;2023-04-25T21:37:12;3.43;;;3.13;;
12846;SDS011;6492;48.128;8.320;2023-04-25T21:41:14;3.07;;;2.50;;
12846;SDS011;6492;48.128;8.320;2023-04-25T21:49:48;4.17;;;2.70;;
12846;SDS011;6492;48.128;8.320;2023-04-25T21:53:50;3.00;;;2.40;;
12846;SDS011;6492;48.128;8.320;2023-04-25T21:57:52;2.00;;;1.80;;
12846;SDS011;6492;48.128;8.320;2023-04-25T22:01:54;2.67;;;2.40;;
12846;SDS011;6492;48.128;8.320;2023-04-25T22:05:57;3.53;;;2.47;;
12846;SDS011;6492;48.128;8.320;2023-04-25T22:09:59;3.43;;;2.90;;
12846;SDS011;6492;48.128;8.320;2023-04-25T22:14:01;3.57;;;3.00;;
12846;SDS011;6492;48.128;8.320;2023-04-25T22:18:03;2.60;;;2.40;;
12846;SDS011;6492;48.128;8.320;2023-04-25T22:22:06;3.03;;;2.73;;
12846;SDS011;6492;48.128;8.320;2023-04-25T22:26:08;3.43;;;2.93;;
12846;SDS011;6492;48.128;8.320;2023-04-25T22:30:11;3.50;;;3.00;;
12846;SDS011;6492;48.128;8.320;2023-04-25T22:34:15;3.83;;;3.03;;
12846;SDS011;6492;48.128;8.320;2023-04-25T22:38:18;3.20;;;2.80;;
12846;SDS011;6492;48.128;8.320;2023-04-25T22:42:21;3.00;;;2.70;;
12846;SDS011;6492;48.128;8.320;2023-04-25T22:46:22;2.90;;;2.63;;
12846;SDS011;6492;48.128;8.320;2023-04-25T22:50:24;2.90;;;2.60;;
12846;SDS011;6492;48.128;8.320;2023-04-25T22:54:28;5.03;;;3.17;;
12846;SDS011;6492;48.128;8.320;2023-04-25T22:58:29;3.43;;;3.07;;
12846;SDS011;6492;48.128;8.320;2023-04-25T23:02:31;3.50;;;3.00;;
12846;SDS011;6492;48.128;8.320;2023-04-25T23:06:34;3.83;;;3.23;;
12846;SDS011;6492;48.128;8.320;2023-04-25T23:10:38;4.57;;;3.13;;
12846;SDS011;6492;48.128;8.320;2023-04-25T23:14:40;4.27;;;2.87;;
12846;SDS011;6492;48.128;8.320;2023-04-25T23:18:41;3.80;;;2.93;;
12846;SDS011;6492;48.128;8.320;2023-04-25T23:22:43;3.40;;;3.03;;
12846;SDS011;6492;48.128;8.320;2023-04-25T23:26:47;3.23;;;2.87;;
12846;SDS011;6492;48.128;8.320;2023-04-25T23:30:49;4.03;;;3.23;;
12846;SDS011;6492;48.128;8.320;2023-04-25T23:34:51;4.50;;;3.50;;
12846;SDS011;6492;48.128;8.320;2023-04-25T23:38:59;3.20;;;2.83;;
12846;SDS011;6492;48.128;8.320;2023-04-25T23:43:02;4.60;;;3.50;;
12846;SDS011;6492;48.128;8.320;2023-04-25T23:47:04;5.40;;;3.80;;
12846;SDS011;6492;48.128;8.320;2023-04-25T23:51:06;5.33;;;4.27;;
12846;SDS011;6492;48.128;8.320;2023-04-25T23:55:08;5.93;;;3.90;;
12846;SDS011;6492;48.128;8.320;2023-04-25T23:59:11;5.93;;;4.47;;
